createdAt,value
2017-12-20T00:01:33.228Z,91.89
2017-12-20T00:04:01.913Z,92.20
2017-12-20T00:06:30.550Z,92.29
2017-12-20T00:09:00.109Z,92.13
2017-12-20T00:11:28.786Z,92.51
2017-12-20T00:13:57.480Z,92.76
2017-12-20T00:16:26.264Z,93.00
2017-12-20T00:18:54.950Z,93.01
2017-12-20T00:21:23.606Z,93.01
2017-12-20T00:23:52.598Z,92.88
2017-12-20T00:26:21.315Z,93.13
2017-12-20T00:28:49.958Z,92.82
2017-12-20T00:31:18.896Z,92.90
2017-12-20T00:33:47.473Z,92.53
2017-12-20T00:36:16.167Z,92.66
2017-12-20T00:38:44.825Z,93.24
2017-12-20T00:41:13.493Z,92.47
2017-12-20T00:43:42.939Z,92.59
2017-12-20T00:46:11.722Z,92.76
2017-12-20T00:48:40.375Z,91.76
2017-12-20T00:51:09.095Z,90.56
2017-12-20T00:53:38.058Z,89.93
2017-12-20T00:56:06.773Z,90.96
2017-12-20T00:58:35.459Z,91.25
2017-12-20T01:01:04.452Z,91.50
2017-12-20T01:03:33.138Z,93.36
2017-12-20T01:06:01.826Z,93.51
2017-12-20T01:08:30.619Z,92.58
2017-12-20T01:10:59.305Z,92.24
2017-12-20T01:13:27.947Z,92.37
2017-12-20T01:15:56.668Z,92.60
2017-12-20T01:18:25.363Z,92.80
2017-12-20T01:20:53.946Z,92.40
2017-12-20T01:23:22.629Z,91.73
2017-12-20T01:25:51.410Z,91.62
2017-12-20T01:28:20.054Z,90.98
2017-12-20T01:30:49.574Z,90.19
2017-12-20T01:33:18.291Z,90.40
2017-12-20T01:35:46.877Z,90.25
2017-12-20T01:38:15.723Z,89.95
2017-12-20T01:40:45.173Z,90.07
2017-12-20T01:43:13.911Z,89.91
2017-12-20T01:45:42.750Z,89.66
2017-12-20T01:48:11.394Z,89.45
2017-12-20T01:50:40.061Z,89.46
2017-12-20T01:53:09.532Z,89.70
2017-12-20T01:55:38.226Z,89.87
2017-12-20T01:58:06.991Z,91.03
2017-12-20T02:00:35.935Z,91.74
2017-12-20T02:03:05.249Z,92.09
2017-12-20T02:05:33.919Z,92.49
2017-12-20T02:08:03.683Z,92.62
2017-12-20T02:10:32.373Z,92.58
2017-12-20T02:13:01.422Z,92.87
2017-12-20T02:15:30.190Z,92.86
2017-12-20T02:17:59.604Z,93.21
2017-12-20T02:20:29.074Z,92.77
2017-12-20T02:22:57.744Z,92.70
2017-12-20T02:25:26.435Z,92.36
2017-12-20T02:27:55.129Z,92.21
2017-12-20T02:30:23.966Z,92.02
2017-12-20T02:32:52.635Z,91.46
2017-12-20T02:35:22.108Z,90.12
2017-12-20T02:37:51.050Z,90.27
2017-12-20T02:40:19.671Z,89.76
2017-12-20T02:42:48.365Z,89.83
2017-12-20T02:45:17.153Z,89.79
2017-12-20T02:47:46.641Z,89.20
2017-12-20T02:50:15.386Z,88.33
2017-12-20T02:52:44.854Z,88.31
2017-12-20T02:55:13.529Z,88.37
2017-12-20T02:57:42.211Z,88.66
2017-12-20T03:00:11.106Z,88.69
2017-12-20T03:05:40.833Z,90.84
2017-12-20T03:08:09.629Z,91.62
2017-12-20T03:10:38.237Z,92.53
2017-12-20T03:13:07.142Z,93.03
2017-12-20T03:15:36.663Z,92.87
2017-12-20T03:18:05.398Z,92.78
2017-12-20T03:20:34.483Z,92.94
2017-12-20T03:23:03.072Z,93.35
2017-12-20T03:25:31.858Z,93.36
2017-12-20T03:28:00.952Z,93.50
2017-12-20T03:30:29.743Z,93.72
2017-12-20T03:32:58.382Z,93.76
2017-12-20T03:35:28.036Z,93.75
2017-12-20T03:37:56.589Z,93.47
2017-12-20T03:40:25.207Z,93.11
2017-12-20T03:42:54.712Z,92.72
2017-12-20T03:45:23.393Z,92.47
2017-12-20T03:47:52.137Z,92.39
2017-12-20T03:50:20.973Z,91.94
2017-12-20T03:52:49.654Z,91.80
2017-12-20T03:55:41.791Z,91.69
2017-12-20T03:58:10.531Z,91.88
2017-12-20T04:00:39.261Z,92.15
2017-12-20T04:03:08.058Z,92.32
2017-12-20T04:05:36.631Z,92.78
2017-12-20T04:08:05.277Z,92.88
2017-12-20T04:10:34.066Z,92.74
2017-12-20T04:13:03.515Z,93.00
2017-12-20T04:15:32.205Z,92.55
2017-12-20T04:18:00.923Z,92.64
2017-12-20T04:20:30.339Z,93.41
2017-12-20T04:22:59.782Z,93.31
2017-12-20T04:25:28.487Z,93.10
2017-12-20T04:28:20.414Z,93.17
2017-12-20T04:30:49.298Z,93.83
2017-12-20T04:33:17.952Z,93.71
2017-12-20T04:35:46.620Z,94.66
2017-12-20T04:38:15.662Z,94.25
2017-12-20T04:40:44.305Z,93.48
2017-12-20T04:43:13.033Z,93.76
2017-12-20T04:45:41.831Z,94.86
2017-12-20T04:48:10.504Z,94.31
2017-12-20T04:50:39.200Z,94.12
2017-12-20T04:53:07.985Z,94.12
2017-12-20T04:55:36.660Z,94.38
2017-12-20T04:58:05.217Z,94.48
2017-12-20T05:00:33.995Z,94.69
2017-12-20T05:03:03.440Z,94.20
2017-12-20T05:05:32.128Z,94.48
2017-12-20T05:08:01.021Z,94.27
2017-12-20T05:10:29.708Z,93.75
2017-12-20T05:12:58.289Z,94.17
2017-12-20T05:15:27.451Z,94.05
2017-12-20T05:17:56.170Z,93.89
2017-12-20T05:20:24.811Z,93.37
2017-12-20T05:22:53.503Z,93.90
2017-12-20T05:25:22.229Z,93.51
2017-12-20T05:27:50.810Z,93.56
2017-12-20T05:30:19.782Z,93.49
2017-12-20T05:32:48.449Z,93.34
2017-12-20T05:35:17.896Z,94.01
2017-12-20T05:37:46.794Z,93.55
2017-12-20T05:40:15.476Z,93.17
2017-12-20T05:42:44.169Z,93.24
2017-12-20T05:45:12.981Z,93.22
2017-12-20T05:47:41.699Z,93.30
2017-12-20T05:50:10.384Z,93.10
2017-12-20T05:52:39.377Z,93.43
2017-12-20T05:55:08.038Z,93.41
2017-12-20T05:57:36.774Z,93.64
2017-12-20T06:00:05.678Z,94.12
2017-12-20T06:02:34.364Z,94.38
2017-12-20T06:05:03.010Z,94.50
2017-12-20T06:07:32.041Z,94.19
2017-12-20T06:10:00.687Z,94.12
2017-12-20T06:12:29.414Z,93.67
2017-12-20T06:14:58.348Z,91.70
2017-12-20T06:17:27.804Z,90.10
2017-12-20T06:19:56.600Z,89.19
2017-12-20T06:22:25.286Z,89.84
2017-12-20T06:24:56.430Z,90.23
2017-12-20T06:27:25.107Z,90.59
2017-12-20T06:29:53.900Z,91.39
2017-12-20T06:32:22.646Z,91.16
2017-12-20T06:34:51.372Z,92.10
2017-12-20T06:37:20.103Z,91.49
2017-12-20T06:39:49.523Z,90.96
2017-12-20T06:42:18.242Z,90.47
2017-12-20T06:44:46.999Z,88.92
2017-12-20T06:47:16.445Z,88.95
2017-12-20T06:49:45.022Z,87.80
2017-12-20T06:52:13.818Z,87.56
2017-12-20T06:54:42.558Z,85.45
2017-12-20T06:57:11.288Z,86.47
2017-12-20T06:59:40.240Z,85.67
2017-12-20T07:02:08.935Z,83.30
2017-12-20T07:04:38.406Z,82.21
2017-12-20T07:07:07.196Z,83.26
2017-12-20T07:09:35.780Z,82.85
2017-12-20T07:12:04.777Z,81.00
2017-12-20T07:14:33.393Z,82.08
2017-12-20T07:17:02.763Z,81.56
2017-12-20T07:19:31.651Z,80.45
2017-12-20T07:22:00.299Z,78.86
2017-12-20T07:24:29.018Z,78.73
2017-12-20T07:26:57.708Z,76.96
2017-12-20T07:29:26.396Z,73.88
2017-12-20T07:31:55.020Z,72.20
2017-12-20T07:34:24.792Z,74.23
2017-12-20T07:36:53.368Z,72.75
2017-12-20T07:39:22.164Z,74.05
2017-12-20T07:41:51.216Z,74.22
2017-12-20T07:44:19.853Z,74.55
2017-12-20T07:46:48.524Z,72.75
2017-12-20T07:49:18.396Z,72.34
2017-12-20T07:51:47.837Z,71.91
2017-12-20T07:54:16.627Z,75.32
2017-12-20T07:56:45.319Z,73.43
2017-12-20T07:59:13.965Z,72.70
2017-12-20T08:01:42.686Z,76.93
2017-12-20T08:04:12.974Z,75.77
2017-12-20T08:06:41.604Z,73.97
2017-12-20T08:09:10.917Z,70.66
2017-12-20T08:11:39.644Z,71.08
2017-12-20T08:14:08.296Z,72.97
2017-12-20T08:16:36.964Z,73.91
2017-12-20T08:19:06.582Z,75.17
2017-12-20T08:21:35.310Z,74.67
2017-12-20T08:24:04.105Z,75.55
2017-12-20T08:26:33.297Z,76.43
2017-12-20T08:29:02.092Z,80.43
2017-12-20T08:31:30.772Z,79.41
2017-12-20T08:33:59.563Z,79.73
2017-12-20T08:36:28.249Z,80.53
2017-12-20T08:38:56.797Z,78.54
2017-12-20T08:41:25.761Z,77.48
2017-12-20T08:43:55.228Z,79.23
2017-12-20T08:46:23.914Z,81.26
2017-12-20T08:48:53.114Z,80.58
2017-12-20T08:51:21.692Z,80.72
2017-12-20T08:53:50.377Z,80.19
2017-12-20T08:56:19.172Z,80.64
2017-12-20T08:58:47.859Z,79.64
2017-12-20T09:01:16.437Z,79.79
2017-12-20T09:03:45.222Z,78.81
2017-12-20T09:06:13.863Z,78.92
2017-12-20T09:08:43.315Z,78.33
2017-12-20T09:11:12.473Z,76.65
2017-12-20T09:13:41.201Z,78.77
2017-12-20T09:16:09.890Z,78.37
2017-12-20T09:18:38.705Z,76.00
2017-12-20T09:21:08.120Z,76.10
2017-12-20T09:23:36.836Z,74.84
2017-12-20T09:26:05.685Z,76.06
2017-12-20T09:28:34.395Z,73.86
2017-12-20T09:31:03.014Z,72.92
2017-12-20T09:33:32.688Z,71.36
2017-12-20T09:36:01.338Z,72.47
2017-12-20T09:38:29.992Z,71.72
2017-12-20T09:40:58.814Z,71.27
2017-12-20T09:43:27.498Z,72.00
2017-12-20T09:45:56.148Z,72.27
2017-12-20T09:48:25.020Z,71.73
2017-12-20T09:50:54.483Z,68.99
2017-12-20T09:53:23.174Z,68.94
2017-12-20T09:55:51.849Z,69.07
2017-12-20T09:58:20.538Z,69.57
2017-12-20T10:00:49.222Z,69.75
2017-12-20T10:03:18.117Z,68.69
2017-12-20T10:05:46.692Z,67.20
2017-12-20T10:08:15.388Z,68.66
2017-12-20T10:10:44.173Z,66.97
2017-12-20T10:13:12.868Z,65.42
2017-12-20T10:15:41.584Z,65.40
2017-12-20T10:18:11.203Z,65.36
2017-12-20T10:20:39.896Z,66.08
2017-12-20T10:23:08.623Z,64.43
2017-12-20T10:25:37.805Z,64.61
2017-12-20T10:28:06.511Z,63.52
2017-12-20T10:30:35.066Z,63.35
2017-12-20T10:33:03.883Z,63.11
2017-12-20T10:35:32.666Z,61.94
2017-12-20T10:38:01.319Z,61.52
2017-12-20T10:40:30.086Z,60.83
2017-12-20T10:42:59.604Z,62.91
2017-12-20T10:45:28.331Z,60.88
2017-12-20T10:47:57.536Z,61.19
2017-12-20T10:50:26.318Z,60.95
2017-12-20T10:52:55.046Z,61.39
2017-12-20T10:55:24.518Z,62.23
2017-12-20T10:57:53.196Z,61.04
2017-12-20T11:00:21.885Z,60.70
2017-12-20T11:03:14.097Z,61.03
2017-12-20T11:05:42.811Z,61.53
2017-12-20T11:08:11.654Z,61.25
2017-12-20T11:10:40.490Z,59.70
2017-12-20T11:13:09.215Z,59.40
2017-12-20T11:15:38.783Z,60.65
2017-12-20T11:18:07.876Z,59.53
2017-12-20T11:20:36.690Z,58.06
2017-12-20T11:23:05.352Z,58.13
2017-12-20T11:25:34.122Z,59.35
2017-12-20T11:28:03.596Z,58.63
2017-12-20T11:30:32.435Z,58.62
2017-12-20T11:33:01.281Z,58.68
2017-12-20T11:35:29.904Z,57.41
2017-12-20T11:37:58.592Z,56.96
2017-12-20T11:40:27.485Z,56.57
2017-12-20T11:42:56.270Z,56.73
2017-12-20T11:45:25.056Z,54.15
2017-12-20T11:47:53.887Z,55.77
2017-12-20T11:50:23.349Z,54.11
2017-12-20T11:52:52.071Z,54.20
2017-12-20T11:55:20.928Z,54.98
2017-12-20T11:57:50.459Z,54.37
2017-12-20T12:00:19.202Z,56.72
2017-12-20T12:02:48.085Z,54.67
2017-12-20T12:05:16.769Z,54.36
2017-12-20T12:07:45.555Z,54.52
2017-12-20T12:10:14.338Z,53.96
2017-12-20T12:12:43.125Z,57.46
2017-12-20T12:15:11.919Z,55.20
2017-12-20T12:17:40.605Z,52.13
2017-12-20T12:20:09.389Z,51.36
2017-12-20T12:22:38.184Z,50.39
2017-12-20T12:25:07.375Z,52.05
2017-12-20T12:27:36.141Z,50.00
2017-12-20T12:30:05.037Z,52.41
2017-12-20T12:32:34.082Z,53.08
2017-12-20T12:35:02.749Z,53.07
2017-12-20T12:37:32.323Z,52.48
2017-12-20T12:40:01.217Z,50.35
2017-12-20T12:42:30.001Z,52.48
2017-12-20T12:44:58.685Z,51.44
2017-12-20T12:47:27.580Z,51.46
2017-12-20T12:49:56.306Z,53.27
2017-12-20T12:52:25.873Z,51.28
2017-12-20T12:54:54.715Z,51.19
2017-12-20T12:57:23.483Z,53.15
2017-12-20T12:59:52.239Z,51.35
2017-12-20T13:02:21.638Z,52.04
2017-12-20T13:04:50.433Z,54.68
2017-12-20T13:07:19.109Z,55.38
2017-12-20T13:09:48.101Z,56.45
2017-12-20T13:12:16.897Z,56.55
2017-12-20T13:14:45.632Z,57.91
2017-12-20T13:17:15.226Z,58.46
2017-12-20T13:19:44.739Z,59.58
2017-12-20T13:22:14.210Z,59.77
2017-12-20T13:24:43.289Z,59.22
2017-12-20T13:27:12.083Z,61.26
2017-12-20T13:29:40.814Z,60.90
2017-12-20T13:32:10.576Z,61.93
2017-12-20T13:34:39.469Z,62.27
2017-12-20T13:37:08.080Z,63.98
2017-12-20T13:39:37.030Z,65.97
2017-12-20T13:42:05.834Z,66.36
2017-12-20T13:44:34.617Z,66.90
2017-12-20T13:47:03.763Z,67.00
2017-12-20T13:49:33.228Z,67.18
2017-12-20T13:52:01.920Z,67.55
2017-12-20T13:54:30.799Z,68.28
2017-12-20T13:56:59.629Z,66.56
2017-12-20T13:59:29.125Z,67.28
2017-12-20T14:01:58.588Z,67.33
2017-12-20T14:04:27.385Z,68.40
2017-12-20T14:06:56.171Z,68.96
2017-12-20T14:09:25.022Z,69.51
2017-12-20T14:11:53.864Z,70.88
2017-12-20T14:14:22.627Z,69.90
2017-12-20T14:16:51.699Z,70.25
2017-12-20T14:19:20.423Z,70.55
2017-12-20T14:21:49.159Z,70.71
2017-12-20T14:24:18.100Z,71.80
2017-12-20T14:26:46.884Z,72.01
2017-12-20T14:29:15.572Z,73.02
2017-12-20T14:31:44.378Z,72.83
2017-12-20T14:34:13.097Z,73.57
2017-12-20T14:36:42.587Z,73.60
2017-12-20T14:39:11.444Z,74.10
2017-12-20T14:41:40.176Z,75.20
2017-12-20T14:44:09.669Z,75.75
2017-12-20T14:46:39.157Z,76.62
2017-12-20T14:49:07.875Z,77.52
2017-12-20T14:51:37.346Z,78.14
2017-12-20T14:54:06.423Z,78.27
2017-12-20T14:56:35.232Z,78.56
2017-12-20T14:59:03.899Z,77.41
2017-12-20T15:01:32.788Z,77.37
2017-12-20T15:04:01.610Z,76.60
2017-12-20T15:06:30.303Z,76.68
2017-12-20T15:09:00.075Z,76.21
2017-12-20T15:11:28.876Z,75.51
2017-12-20T15:13:57.659Z,75.91
2017-12-20T15:16:26.446Z,74.63
2017-12-20T15:18:55.137Z,75.92
2017-12-20T15:21:23.831Z,75.48
2017-12-20T15:23:52.803Z,75.73
2017-12-20T15:26:21.619Z,74.81
2017-12-20T15:28:50.385Z,75.00
2017-12-20T15:31:20.058Z,75.26
2017-12-20T15:33:48.897Z,75.32
2017-12-20T15:36:18.560Z,75.23
2017-12-20T15:38:47.403Z,75.11
2017-12-20T15:41:17.061Z,75.00
2017-12-20T15:43:45.892Z,74.63
2017-12-20T15:46:15.761Z,74.66
2017-12-20T15:48:44.380Z,74.76
2017-12-20T15:51:13.954Z,73.79
2017-12-20T15:53:43.145Z,73.93
2017-12-20T15:56:11.940Z,74.16
2017-12-20T15:58:40.649Z,73.61
2017-12-20T16:01:09.610Z,73.33
2017-12-20T16:03:38.359Z,73.28
2017-12-20T16:06:07.102Z,74.03
2017-12-20T16:08:35.916Z,74.14
2017-12-20T16:11:05.437Z,73.92
2017-12-20T16:13:34.279Z,73.59
2017-12-20T16:16:03.369Z,74.02
2017-12-20T16:18:32.154Z,73.56
2017-12-20T16:21:00.958Z,72.69
2017-12-20T16:23:31.852Z,73.18
2017-12-20T16:26:00.568Z,73.76
2017-12-20T16:28:30.144Z,74.69
2017-12-20T16:30:59.238Z,73.25
2017-12-20T16:33:27.922Z,73.62
2017-12-20T16:35:56.817Z,73.83
2017-12-20T16:38:25.680Z,73.74
2017-12-20T16:40:54.395Z,73.93
2017-12-20T16:43:23.191Z,73.99
2017-12-20T16:45:52.274Z,74.45
2017-12-20T16:48:20.977Z,74.20
2017-12-20T16:50:49.650Z,73.98
2017-12-20T16:53:35.845Z,73.68
2017-12-20T16:56:04.579Z,74.02
2017-12-20T16:58:34.543Z,73.18
2017-12-20T17:01:03.644Z,73.23
2017-12-20T17:03:33.203Z,74.38
2017-12-20T17:06:02.749Z,73.61
2017-12-20T17:08:31.645Z,74.26
2017-12-20T17:11:00.384Z,74.06
2017-12-20T17:13:29.223Z,74.18
2017-12-20T17:15:58.206Z,74.53
2017-12-20T17:18:26.912Z,74.04
2017-12-20T17:20:55.704Z,74.30
2017-12-20T17:23:24.582Z,75.01
2017-12-20T17:25:53.464Z,73.83
2017-12-20T17:28:22.185Z,74.18
2017-12-20T17:30:51.046Z,73.90
2017-12-20T17:33:19.829Z,73.91
2017-12-20T17:35:48.532Z,72.84
2017-12-20T17:38:17.550Z,72.03
2017-12-20T17:40:47.045Z,73.17
2017-12-20T17:43:15.738Z,72.92
2017-12-20T17:45:45.412Z,71.98
2017-12-20T17:48:14.205Z,73.77
2017-12-20T17:50:42.940Z,72.98
2017-12-20T17:53:13.583Z,72.66
2017-12-20T17:55:42.305Z,73.44
2017-12-20T17:58:11.039Z,72.94
2017-12-20T18:00:41.005Z,72.59
2017-12-20T18:03:09.828Z,71.68
2017-12-20T18:05:39.406Z,73.28
2017-12-20T18:08:08.299Z,72.81
2017-12-20T18:10:37.085Z,73.29
2017-12-20T18:13:05.775Z,72.51
2017-12-20T18:15:34.616Z,72.90
2017-12-20T18:18:03.336Z,74.13
2017-12-20T18:20:32.074Z,74.39
2017-12-20T18:23:01.940Z,73.47
2017-12-20T18:25:30.731Z,73.88
2017-12-20T18:27:59.372Z,73.64
2017-12-20T18:30:28.301Z,74.11
2017-12-20T18:32:57.195Z,73.75
2017-12-20T18:35:25.979Z,74.40
2017-12-20T18:37:55.021Z,73.67
2017-12-20T18:40:23.698Z,74.27
2017-12-20T18:42:52.380Z,73.89
2017-12-20T18:45:21.427Z,73.77
2017-12-20T18:47:50.990Z,72.34
2017-12-20T18:50:19.712Z,71.75
2017-12-20T18:52:49.382Z,71.32
2017-12-20T18:55:18.828Z,72.04
2017-12-20T18:57:47.576Z,71.58
2017-12-20T19:00:17.430Z,71.64
2017-12-20T19:02:46.220Z,71.84
2017-12-20T19:05:14.918Z,71.74
2017-12-20T19:07:43.696Z,71.38
2017-12-20T19:10:12.428Z,71.61
2017-12-20T19:12:42.092Z,71.70
2017-12-20T19:15:11.290Z,71.91
2017-12-20T19:17:40.075Z,70.28
2017-12-20T19:20:08.769Z,70.77
2017-12-20T19:22:37.916Z,71.22
2017-12-20T19:25:06.633Z,71.21
2017-12-20T19:27:35.352Z,70.78
2017-12-20T19:30:04.227Z,69.14
2017-12-20T19:32:32.961Z,70.35
2017-12-20T19:35:02.425Z,69.94
2017-12-20T19:37:31.371Z,69.01
2017-12-20T19:40:00.097Z,69.36
2017-12-20T19:42:28.802Z,69.65
2017-12-20T19:44:58.572Z,69.22
2017-12-20T19:47:27.359Z,69.08
2017-12-20T19:49:56.159Z,69.11
2017-12-20T19:52:25.248Z,68.95
2017-12-20T19:54:53.970Z,70.12
2017-12-20T19:57:23.486Z,69.92
2017-12-20T19:59:53.354Z,69.20
2017-12-20T20:02:22.071Z,68.79
2017-12-20T20:04:51.584Z,69.82
2017-12-20T20:07:21.331Z,69.26
2017-12-20T20:09:49.942Z,69.80
2017-12-20T20:12:18.642Z,69.14
2017-12-20T20:14:47.819Z,68.91
2017-12-20T20:17:16.613Z,69.96
2017-12-20T20:19:45.319Z,69.45
2017-12-20T20:22:14.085Z,69.46
2017-12-20T20:24:42.870Z,69.02
2017-12-20T20:27:11.665Z,69.02
2017-12-20T20:29:40.657Z,69.15
2017-12-20T20:32:09.382Z,68.97
2017-12-20T20:34:38.950Z,69.21
2017-12-20T20:37:07.631Z,68.13
2017-12-20T20:39:36.421Z,69.00
2017-12-20T20:42:05.128Z,68.70
2017-12-20T20:44:34.002Z,67.76
2017-12-20T20:47:02.786Z,67.79
2017-12-20T20:49:31.506Z,67.94
2017-12-20T20:52:01.892Z,68.45
2017-12-20T20:54:30.688Z,68.35
2017-12-20T20:56:59.433Z,68.73
2017-12-20T20:59:28.267Z,68.80
2017-12-20T21:01:56.996Z,69.24
2017-12-20T21:04:26.372Z,69.23
2017-12-20T21:06:55.444Z,68.33
2017-12-20T21:09:24.239Z,69.62
2017-12-20T21:11:52.937Z,68.15
2017-12-20T21:14:21.955Z,68.32
2017-12-20T21:16:51.443Z,67.81
2017-12-20T21:19:20.138Z,67.95
2017-12-20T21:21:49.095Z,68.48
2017-12-20T21:24:17.890Z,68.27
2017-12-20T21:26:46.618Z,68.29
2017-12-20T21:29:16.335Z,67.13
2017-12-20T21:31:44.968Z,67.50
2017-12-20T21:34:13.752Z,67.62
2017-12-20T21:36:42.712Z,67.20
2017-12-20T21:39:11.541Z,67.33
2017-12-20T21:41:40.273Z,67.37
2017-12-20T21:44:09.787Z,66.81
2017-12-20T21:46:39.332Z,66.79
2017-12-20T21:49:08.128Z,67.79
2017-12-20T21:51:37.011Z,68.42
2017-12-20T21:54:05.757Z,67.73
2017-12-20T21:56:35.208Z,67.55
2017-12-20T21:59:04.245Z,68.43
2017-12-20T22:01:33.740Z,67.67
2017-12-20T22:04:03.227Z,67.84
2017-12-20T22:06:33.637Z,67.91
2017-12-20T22:09:02.341Z,68.38
2017-12-20T22:11:31.015Z,67.94
2017-12-20T22:13:59.751Z,67.75
2017-12-20T22:16:28.478Z,68.35
2017-12-20T22:18:57.272Z,67.60
2017-12-20T22:21:27.078Z,67.45
2017-12-20T22:23:55.869Z,66.83
2017-12-20T22:26:24.589Z,67.82
2017-12-20T22:28:54.267Z,68.27
2017-12-20T22:31:23.000Z,69.21
2017-12-20T22:33:52.492Z,68.82
2017-12-20T22:36:22.167Z,68.73
2017-12-20T22:38:50.902Z,68.69
2017-12-20T22:41:20.394Z,68.69
2017-12-20T22:43:50.069Z,68.21
2017-12-20T22:46:18.853Z,67.76
2017-12-20T22:48:47.648Z,67.90
2017-12-20T22:51:16.560Z,68.45
2017-12-20T22:53:46.033Z,68.88
2017-12-20T22:56:14.774Z,68.20
2017-12-20T22:58:44.292Z,68.98
2017-12-20T23:01:13.035Z,68.62
2017-12-20T23:03:41.728Z,69.24
2017-12-20T23:06:10.501Z,68.89
2017-12-20T23:08:39.209Z,68.85
2017-12-20T23:11:07.865Z,68.57
2017-12-20T23:13:36.823Z,69.50
2017-12-20T23:16:05.440Z,68.44
2017-12-20T23:18:34.135Z,68.49
2017-12-20T23:21:03.328Z,68.95
2017-12-20T23:23:32.115Z,69.56
2017-12-20T23:26:00.861Z,69.52
2017-12-20T23:28:29.997Z,68.86
2017-12-20T23:30:58.745Z,69.32
2017-12-20T23:33:27.571Z,69.68
2017-12-20T23:35:56.563Z,69.73
2017-12-20T23:38:25.252Z,69.82
2017-12-20T23:40:53.936Z,69.87
2017-12-20T23:43:22.808Z,70.54
2017-12-20T23:45:51.614Z,70.34
2017-12-20T23:48:20.508Z,70.92
2017-12-20T23:50:49.261Z,70.28
2017-12-20T23:53:18.088Z,69.46
2017-12-20T23:55:46.821Z,70.00
2017-12-20T23:58:16.579Z,69.66
